logo
Search for airport 
image banner adimage banner adimage banner ad
image banner ad

5B1 - John H Boylan State (Island Pond)

Located in Island Pond, United States

ICAO - 5B1, IATA -

Data provided by Airmate  

General information

Coordinates: N44°47'24" W71°49'35"
Elevation is 1194 feet MSL.
Magnetic variation is -17° East
View others Airports in Vermont

Operational data

Special qualification required
Current time UTC:
Current local time:
Weather at : KCDA - Caledonia County ( 29 km )
METAR: KCDA 220855Z AUTO 00000KT 10SM OVC100 17/16 A2992 RMK AO2 T01700157 PWINO
View NOTAMs / SUP AIP / TFR affecting this airport [VIEW]
Communications frequencies: [VIEW]

Runways:

RWY identifierQFULength (ft)Width (ft)SurfaceLDA (ft)
14124°2650120GRASS
32304°2650120GRASS

Airport contact information

Address: Island Pond United States

Satellite view of 5B1